Time;durP1;ratioP1;P1;durP2;ratioP2;P2;SDS_P1;SDS_P2;PMS_P1;PMS_P2;Temp;Humidity;BMP_temperature;BMP_pressure;BME280_temperature;BME280_humidity;BME280_pressure;Samples;Min_cycle;Max_cycle;Signal;HPM_P1;HPM_P2
2021/09/23 00:02:15;;;;;;;;;;;;;;;21.85;75.39;102138.00;7287222;19;152605;-51
2021/09/23 00:04:43;;;;;;;;;;;;;;;21.84;75.22;102136.31;7283920;19;154199;-52
2021/09/23 00:07:10;;;;;;;;;;;;;;;21.84;75.60;102139.13;7284204;19;151601;-52
2021/09/23 00:09:37;;;;;;;;;;;;;;;21.84;75.53;102141.09;7286043;19;152583;-52
2021/09/23 00:12:04;;;;;;;;;;;;;;;21.82;75.57;102138.56;7283913;19;153309;-51
2021/09/23 00:14:31;;;;;;;;;;;;;;;21.84;75.62;102135.47;7279233;19;151983;-51
2021/09/23 00:16:58;;;;;;;;;;;;;;;21.83;75.50;102126.19;7293025;19;152729;-51
2021/09/23 00:19:25;;;;;;;;;;;;;;;21.84;75.45;102127.03;7280191;19;151964;-52
2021/09/23 00:21:52;;;;;;;;;;;;;;;21.82;75.65;102124.50;7286275;19;153254;-51
2021/09/23 00:24:19;;;;;;;;;;;;;;;21.82;75.81;102132.94;7285545;19;153827;-52
2021/09/23 00:26:46;;;;;;;;;;;;;;;21.81;76.08;102130.41;7285862;19;151795;-51
2021/09/23 00:29:12;;;;;;;;;;;;;;;21.80;75.69;102132.41;7286703;19;152972;-51
2021/09/23 00:31:39;;;;;;;;;;;;;;;21.78;75.76;102126.22;7285057;19;153714;-52
2021/09/23 00:34:06;;;;;;;;;;;;;;;21.81;75.70;102124.78;7284612;19;152180;-51
2021/09/23 00:36:33;;;;;;;;;;;;;;;21.80;75.86;102126.78;7285726;19;155586;-51
2021/09/23 00:39:00;;;;;;;;;;;;;;;21.82;75.86;102123.66;7290418;19;153986;-51
2021/09/23 00:41:27;;;;;;;;;;;;;;;21.81;75.90;102124.78;7284918;19;152475;-51
2021/09/23 00:43:54;;;;;;;;;;;;;;;21.82;75.91;102115.22;7280842;19;154025;-52
2021/09/23 00:46:20;;;;;;;;;;;;;;;21.82;76.09;102126.47;7285355;19;151770;-51
2021/09/23 00:48:50;;;;;;;;;;;;;;;21.81;75.78;102120.00;7283026;19;153360;-51
2021/09/23 00:51:17;;;;;;;;;;;;;;;21.80;75.92;102120.31;7279102;19;153623;-52
2021/09/23 00:53:44;;;;;;;;;;;;;;;21.80;75.57;102118.34;7281670;19;152072;-51
2021/09/23 00:56:11;;;;;;;;;;;;;;;21.77;75.64;102110.47;7279901;19;152762;-52
2021/09/23 00:58:38;;;;;;;;;;;;;;;21.77;75.55;102110.47;7280843;19;153978;-51
2021/09/23 01:01:05;;;;;;;;;;;;;;;21.77;75.64;102106.81;7289967;19;151870;-51
2021/09/23 01:03:32;;;;;;;;;;;;;;;21.74;75.18;102100.63;7279671;19;154063;-51
2021/09/23 01:05:59;;;;;;;;;;;;;;;21.76;75.40;102097.50;7282088;19;151915;-51
2021/09/23 01:08:26;;;;;;;;;;;;;;;21.73;75.20;102098.09;7279649;19;152685;-51
2021/09/23 01:10:53;;;;;;;;;;;;;;;21.72;74.91;102096.41;7278336;19;152138;-51
2021/09/23 01:13:22;;;;;;;;;;;;;;;21.72;74.83;102087.97;7281958;19;152090;-51
2021/09/23 01:15:49;;;;;;;;;;;;;;;21.70;75.10;102082.66;7277826;19;153120;-51
2021/09/23 01:18:17;;;;;;;;;;;;;;;21.71;75.15;102084.31;7280338;19;153824;-51
2021/09/23 01:20:44;;;;;;;;;;;;;;;21.68;74.76;102082.09;7277621;19;152452;-51
2021/09/23 01:23:12;;;;;;;;;;;;;;;21.65;75.15;102077.06;7288707;19;152573;-50
2021/09/23 01:25:39;;;;;;;;;;;;;;;21.67;75.11;102073.94;7285481;19;151593;-51
2021/09/23 01:28:05;;;;;;;;;;;;;;;21.65;74.83;102068.63;7288436;19;153919;-52
2021/09/23 01:30:33;;;;;;;;;;;;;;;21.65;74.60;102060.19;7287122;19;153091;-51
2021/09/23 01:33:00;;;;;;;;;;;;;;;21.65;74.73;102054.56;7288044;19;151943;-51
2021/09/23 01:35:27;;;;;;;;;;;;;;;21.64;74.74;102054.81;7284941;19;152385;-51
2021/09/23 01:37:54;;;;;;;;;;;;;;;21.62;75.08;102062.72;7287937;19;153235;-52
2021/09/23 01:40:20;;;;;;;;;;;;;;;21.62;75.28;102055.09;7287954;19;151703;-51
2021/09/23 01:42:47;;;;;;;;;;;;;;;21.66;75.00;102052.59;7285197;19;151861;-51
2021/09/23 01:45:14;;;;;;;;;;;;;;;21.64;74.73;102057.66;7294168;19;153827;-52
2021/09/23 01:47:41;;;;;;;;;;;;;;;21.61;74.82;102049.78;7288862;19;153439;-52
2021/09/23 01:50:08;;;;;;;;;;;;;;;21.61;75.02;102046.97;7288266;19;153355;-51
2021/09/23 01:52:35;;;;;;;;;;;;;;;21.62;75.21;102043.03;7288416;19;152271;-51
2021/09/23 01:55:02;;;;;;;;;;;;;;;21.61;75.12;102033.75;7289951;19;152239;-52
2021/09/23 01:57:28;;;;;;;;;;;;;;;21.61;75.42;102027.28;7288194;19;153792;-52
2021/09/23 01:59:55;;;;;;;;;;;;;;;21.60;75.46;102023.63;7288073;19;151644;-52
2021/09/23 02:02:22;;;;;;;;;;;;;;;21.61;75.55;102030.09;7289887;19;152231;-51
2021/09/23 02:04:54;;;;;;;;;;;;;;;21.61;75.45;102030.09;7296728;19;153880;-51
2021/09/23 02:07:22;;;;;;;;;;;;;;;21.61;75.26;102016.03;7288338;19;152574;-51
2021/09/23 02:09:48;;;;;;;;;;;;;;;21.61;75.73;102013.22;7289000;19;153415;-50
2021/09/23 02:12:17;;;;;;;;;;;;;;;21.62;75.57;102017.72;7289832;19;152108;-52
2021/09/23 02:14:44;;;;;;;;;;;;;;;21.62;75.19;102021.34;7287605;19;153239;-52
2021/09/23 02:17:11;;;;;;;;;;;;;;;21.62;75.70;102018.53;7286883;19;154126;-52
2021/09/23 02:19:38;;;;;;;;;;;;;;;21.64;75.89;102018.25;7285098;19;152156;-51
2021/09/23 02:22:05;;;;;;;;;;;;;;;21.63;75.78;102022.19;7286468;19;153034;-52
2021/09/23 02:24:32;;;;;;;;;;;;;;;21.62;75.38;102021.34;7286708;19;151927;-51
2021/09/23 02:26:59;;;;;;;;;;;;;;;21.61;75.41;102014.06;7293943;19;152596;-51
2021/09/23 02:29:25;;;;;;;;;;;;;;;21.60;75.63;102022.78;7288151;19;152144;-51
2021/09/23 02:31:52;;;;;;;;;;;;;;;21.62;76.07;102012.91;7287288;19;152100;-52
2021/09/23 02:34:19;;;;;;;;;;;;;;;21.60;75.78;102008.72;7287646;19;152907;-51
2021/09/23 02:36:45;;;;;;;;;;;;;;;21.60;75.59;102023.63;7283424;19;154216;-51
2021/09/23 02:39:12;;;;;;;;;;;;;;;21.59;76.18;102024.75;7289231;19;151862;-53
2021/09/23 02:41:39;;;;;;;;;;;;;;;21.60;75.73;102018.00;7288542;19;152302;-51
2021/09/23 02:44:06;;;;;;;;;;;;;;;21.59;76.04;102026.72;7287832;19;154152;-51
2021/09/23 02:46:33;;;;;;;;;;;;;;;21.60;75.91;102019.97;7288399;19;151955;-51
2021/09/23 02:48:59;;;;;;;;;;;;;;;21.61;75.64;102019.69;7295124;19;153210;-51
2021/09/23 02:51:26;;;;;;;;;;;;;;;21.61;76.04;102030.09;7288483;19;151864;-52
2021/09/23 02:53:53;;;;;;;;;;;;;;;21.62;75.80;102026.16;7289051;19;152621;-52
2021/09/23 02:56:19;;;;;;;;;;;;;;;21.61;75.92;102035.72;7283526;19;153329;-51
2021/09/23 02:58:47;;;;;;;;;;;;;;;21.60;75.74;102031.22;7286841;19;151780;-52
2021/09/23 03:01:15;;;;;;;;;;;;;;;21.61;75.49;102030.09;7285809;19;152234;-51
2021/09/23 03:03:42;;;;;;;;;;;;;;;21.58;75.80;102020.25;7285310;19;152294;-51
2021/09/23 03:06:13;;;;;;;;;;;;;;;21.60;76.27;102023.63;7286444;19;151783;-51
2021/09/23 03:08:40;;;;;;;;;;;;;;;21.62;75.86;102021.34;7289237;19;153073;-51
2021/09/23 03:11:07;;;;;;;;;;;;;;;21.60;75.95;102019.97;7292659;19;153950;-52
2021/09/23 03:13:33;;;;;;;;;;;;;;;21.60;75.57;102014.34;7286511;19;153107;-52
2021/09/23 03:16:00;;;;;;;;;;;;;;;21.58;75.71;102005.34;7283965;19;152160;-52
2021/09/23 03:18:27;;;;;;;;;;;;;;;21.58;76.10;102006.19;7288122;19;151898;-51
2021/09/23 03:20:54;;;;;;;;;;;;;;;21.58;75.82;102003.38;7284612;19;152214;-51
2021/09/23 03:23:20;;;;;;;;;;;;;;;21.58;76.07;102005.34;7283641;19;153753;-52
2021/09/23 03:25:48;;;;;;;;;;;;;;;21.58;75.90;101997.75;7287324;19;151903;-52
2021/09/23 03:28:15;;;;;;;;;;;;;;;21.58;76.04;101985.66;7286573;19;151620;-51
2021/09/23 03:30:42;;;;;;;;;;;;;;;21.55;75.97;101975.84;7285505;19;153972;-51
2021/09/23 03:33:09;;;;;;;;;;;;;;;21.56;75.82;101979.50;7296017;19;151690;-51
2021/09/23 03:35:36;;;;;;;;;;;;;;;21.56;76.19;101971.91;7286125;19;153892;-52
2021/09/23 03:38:04;;;;;;;;;;;;;;;21.58;76.21;101968.78;7286646;19;152073;-52
2021/09/23 03:40:31;;;;;;;;;;;;;;;21.58;76.40;101975.25;7285598;19;152347;-52
2021/09/23 03:42:58;;;;;;;;;;;;;;;21.58;76.53;101977.22;7284709;19;153298;-52
2021/09/23 03:45:25;;;;;;;;;;;;;;;21.55;76.42;101975.84;7287111;19;152314;-52
2021/09/23 03:47:51;;;;;;;;;;;;;;;21.55;76.13;101967.41;7285217;19;152579;-51
2021/09/23 03:50:18;;;;;;;;;;;;;;;21.54;75.88;101973.31;7282940;19;153258;-52
2021/09/23 03:52:46;;;;;;;;;;;;;;;21.55;76.44;101967.41;7286232;19;151988;-52
2021/09/23 03:55:15;;;;;;;;;;;;;;;21.55;76.26;101963.75;7292241;19;151837;-52
2021/09/23 03:57:43;;;;;;;;;;;;;;;21.55;76.42;101953.34;7284056;19;151906;-52
2021/09/23 04:00:10;;;;;;;;;;;;;;;21.55;76.38;101944.91;7287182;19;152834;-51
2021/09/23 04:02:37;;;;;;;;;;;;;;;21.56;76.23;101949.41;7284429;19;153837;-51
2021/09/23 04:05:04;;;;;;;;;;;;;;;21.56;76.58;101948.56;7284923;19;151970;-51
2021/09/23 04:07:31;;;;;;;;;;;;;;;21.54;76.82;101946.03;7286889;19;152655;-51
2021/09/23 04:09:58;;;;;;;;;;;;;;;21.56;76.87;101949.41;7285143;19;153450;-52
2021/09/23 04:12:25;;;;;;;;;;;;;;;21.60;76.67;101939.25;7285454;19;152123;-52
2021/09/23 04:14:51;;;;;;;;;;;;;;;21.56;76.31;101937.31;7292570;19;152671;-52
2021/09/23 04:17:19;;;;;;;;;;;;;;;21.55;76.19;101925.22;7284550;19;151845;-51
2021/09/23 04:19:46;;;;;;;;;;;;;;;21.54;75.88;101920.72;7286978;19;151666;-52
2021/09/23 04:22:13;;;;;;;;;;;;;;;21.35;73.38;101921.72;7282816;19;152533;-52
2021/09/23 04:24:43;;;;;;;;;;;;;;;21.36;74.50;101917.75;7280243;19;152161;-51
2021/09/23 04:27:09;;;;;;;;;;;;;;;21.42;75.22;101925.88;7285606;19;152592;-52
2021/09/23 04:29:39;;;;;;;;;;;;;;;21.43;74.81;101916.31;7285291;19;152538;-51
2021/09/23 04:32:06;;;;;;;;;;;;;;;21.42;74.89;101909.00;7286790;19;151970;-52
2021/09/23 04:34:33;;;;;;;;;;;;;;;21.43;75.02;101913.50;7284038;19;153360;-52
2021/09/23 04:37:00;;;;;;;;;;;;;;;21.43;74.89;101909.84;7287655;19;153842;-52
2021/09/23 04:39:27;;;;;;;;;;;;;;;21.42;75.45;101905.34;7284706;19;152541;-52
2021/09/23 04:41:53;;;;;;;;;;;;;;;21.42;75.48;101900.59;7282610;19;153374;-52
2021/09/23 04:44:20;;;;;;;;;;;;;;;21.42;75.11;101900.59;7284454;19;152909;-52
2021/09/23 04:46:47;;;;;;;;;;;;;;;21.43;74.89;101887.38;7286810;19;153178;-52
2021/09/23 04:49:14;;;;;;;;;;;;;;;21.43;75.13;101893.84;7285841;19;153798;-52
2021/09/23 04:51:41;;;;;;;;;;;;;;;21.42;75.47;101878.09;7284300;19;151858;-52
2021/09/23 04:54:07;;;;;;;;;;;;;;;21.42;75.15;101877.25;7283495;19;153215;-52
2021/09/23 04:56:35;;;;;;;;;;;;;;;21.42;75.31;101880.91;7280183;19;153963;-52
2021/09/23 04:59:02;;;;;;;;;;;;;;;21.42;75.47;101880.06;7290605;19;151509;-51
2021/09/23 05:01:29;;;;;;;;;;;;;;;21.42;75.51;101880.91;7283877;19;153839;-51
2021/09/23 05:03:56;;;;;;;;;;;;;;;21.42;75.29;101886.53;7286018;19;151704;-50
2021/09/23 05:06:23;;;;;;;;;;;;;;;21.41;75.52;101884.84;7284807;19;153142;-51
2021/09/23 05:08:50;;;;;;;;;;;;;;;21.43;75.51;101882.59;7285078;19;153286;-52
2021/09/23 05:11:17;;;;;;;;;;;;;;;21.44;75.47;101894.69;7283307;19;152281;-51
2021/09/23 05:13:44;;;;;;;;;;;;;;;21.42;75.96;101880.06;7285723;19;152877;-51
2021/09/23 05:16:11;;;;;;;;;;;;;;;21.42;75.68;101875.28;7283076;19;154016;-51
2021/09/23 05:18:37;;;;;;;;;;;;;;;21.42;75.68;101878.09;7285046;19;151626;-51
2021/09/23 05:21:04;;;;;;;;;;;;;;;21.42;75.78;101885.69;7291325;19;152755;-51
2021/09/23 05:23:31;;;;;;;;;;;;;;;21.42;75.62;101880.06;7281569;19;152221;-51
2021/09/23 05:25:58;;;;;;;;;;;;;;;21.39;75.87;101881.50;7281826;19;153342;-51
2021/09/23 05:28:25;;;;;;;;;;;;;;;21.41;75.74;101886.81;7282353;19;153941;-51
2021/09/23 05:30:52;;;;;;;;;;;;;;;21.40;75.83;101893.56;7284639;19;151616;-51
2021/09/23 05:33:18;;;;;;;;;;;;;;;21.41;75.93;101896.09;7284107;19;152858;-51
2021/09/23 05:35:45;;;;;;;;;;;;;;;21.41;76.01;101893.28;7283168;19;153773;-52
2021/09/23 05:38:12;;;;;;;;;;;;;;;21.40;75.96;101899.16;7282975;19;151528;-51
2021/09/23 05:40:39;;;;;;;;;;;;;;;21.40;75.98;101900.00;7282815;19;153664;-52
2021/09/23 05:43:06;;;;;;;;;;;;;;;21.40;75.77;101905.63;7288256;19;152930;-51
2021/09/23 05:45:33;;;;;;;;;;;;;;;21.41;75.82;101901.69;7283401;19;151545;-51
2021/09/23 05:48:00;;;;;;;;;;;;;;;21.42;75.94;101910.97;7282588;19;152691;-51
2021/09/23 05:50:27;;;;;;;;;;;;;;;21.41;75.86;101900.88;7283585;19;152249;-51
2021/09/23 05:52:54;;;;;;;;;;;;;;;21.39;75.72;101889.94;7284461;19;152480;-51
2021/09/23 05:55:20;;;;;;;;;;;;;;;21.41;75.63;101892.44;7280674;19;153748;-51
2021/09/23 05:57:47;;;;;;;;;;;;;;;21.39;75.98;101884.31;7279434;19;151752;-50
2021/09/23 06:00:15;;;;;;;;;;;;;;;21.39;75.90;101886.28;7281392;19;153194;-51
2021/09/23 06:02:42;;;;;;;;;;;;;;;21.40;76.06;101880.34;7280365;19;151969;-51
2021/09/23 06:05:10;;;;;;;;;;;;;;;21.38;76.07;101874.19;7289656;19;151615;-51
2021/09/23 06:07:37;;;;;;;;;;;;;;;21.37;75.99;101872.50;7283164;19;153330;-51
2021/09/23 06:10:05;;;;;;;;;;;;;;;21.36;76.06;101868.00;7279907;19;151725;-50
2021/09/23 06:12:32;;;;;;;;;;;;;;;21.36;75.89;101865.19;7287387;19;151796;-51
2021/09/23 06:14:58;;;;;;;;;;;;;;;21.37;75.62;101863.22;7289106;19;154090;-53
2021/09/23 06:17:25;;;;;;;;;;;;;;;21.37;75.77;101863.22;7286290;19;151844;-52
2021/09/23 06:19:52;;;;;;;;;;;;;;;21.35;75.71;101857.06;7287025;19;153050;-51
2021/09/23 06:22:19;;;;;;;;;;;;;;;21.35;75.96;101868.31;7289152;19;153784;-51
2021/09/23 06:24:47;;;;;;;;;;;;;;;21.33;76.02;101862.97;7293717;19;151799;-51
2021/09/23 06:27:13;;;;;;;;;;;;;;;21.33;76.01;101857.34;7285595;19;154165;-51
2021/09/23 06:29:40;;;;;;;;;;;;;;;21.34;75.79;101856.22;7290396;19;151698;-50
2021/09/23 06:32:07;;;;;;;;;;;;;;;21.32;75.84;101852.84;7289672;19;153130;-51
2021/09/23 06:34:34;;;;;;;;;;;;;;;21.32;76.14;101858.47;7287040;19;153690;-51
2021/09/23 06:37:01;;;;;;;;;;;;;;;21.33;75.86;101857.34;7286596;19;151775;-50
2021/09/23 06:39:28;;;;;;;;;;;;;;;21.31;76.24;101856.78;7288928;19;152110;-51
2021/09/23 06:41:56;;;;;;;;;;;;;;;21.31;75.81;101862.41;7287978;19;154505;-54
2021/09/23 06:44:23;;;;;;;;;;;;;;;21.31;75.64;101851.16;7288701;19;151872;-51
2021/09/23 06:46:50;;;;;;;;;;;;;;;21.29;75.83;101857.09;7295788;19;151859;-51
2021/09/23 06:49:17;;;;;;;;;;;;;;;21.29;76.21;101853.44;7287134;19;152141;-51
2021/09/23 06:51:44;;;;;;;;;;;;;;;21.29;76.17;101864.69;7289723;19;153500;-51
2021/09/23 06:54:11;;;;;;;;;;;;;;;21.29;75.78;101861.88;7286724;19;152791;-51
2021/09/23 06:56:38;;;;;;;;;;;;;;;21.29;76.15;101862.72;7285559;19;151678;-50
2021/09/23 06:59:05;;;;;;;;;;;;;;;21.28;76.18;101854.56;7289075;19;153374;-52
2021/09/23 07:01:33;;;;;;;;;;;;;;;21.29;76.00;101859.06;7287144;19;153907;-51
2021/09/23 07:04:01;;;;;;;;;;;;;;;21.28;76.17;101852.59;7287553;19;152351;-51
2021/09/23 07:06:28;;;;;;;;;;;;;;;21.29;76.62;101854.28;7289315;19;151978;-51
2021/09/23 07:08:55;;;;;;;;;;;;;;;21.29;76.23;101850.63;7294127;19;153512;-51
2021/09/23 07:11:22;;;;;;;;;;;;;;;21.29;76.66;101854.28;7287541;19;152579;-51
2021/09/23 07:13:48;;;;;;;;;;;;;;;21.29;76.70;101842.19;7287257;19;153773;-51
2021/09/23 07:16:15;;;;;;;;;;;;;;;21.27;76.39;101842.47;7288480;19;151903;-51
2021/09/23 07:18:43;;;;;;;;;;;;;;;21.30;76.16;101846.69;7283726;19;152956;-51
2021/09/23 07:21:09;;;;;;;;;;;;;;;21.30;76.54;101846.69;7286888;19;152181;-51
2021/09/23 07:23:36;;;;;;;;;;;;;;;21.28;76.11;101837.69;7285169;19;151588;-51
2021/09/23 07:26:03;;;;;;;;;;;;;;;21.28;76.27;101843.31;7285431;19;152482;-51
2021/09/23 07:28:30;;;;;;;;;;;;;;;21.27;76.35;101848.09;7283115;19;152957;-51
2021/09/23 07:30:58;;;;;;;;;;;;;;;21.29;76.25;101842.19;7293309;19;151890;-51
2021/09/23 07:33:24;;;;;;;;;;;;;;;21.26;76.15;101834.34;7287044;19;152446;-51
2021/09/23 07:35:52;;;;;;;;;;;;;;;21.27;76.64;101839.66;7287854;19;151795;-51
2021/09/23 07:38:19;;;;;;;;;;;;;;;21.24;76.53;101845.88;7285557;19;152979;-51
2021/09/23 07:40:45;;;;;;;;;;;;;;;21.26;76.92;101843.59;7283822;19;153230;-51
2021/09/23 07:43:12;;;;;;;;;;;;;;;21.28;76.60;101837.69;7285987;19;151746;-51
2021/09/23 07:45:39;;;;;;;;;;;;;;;21.27;76.50;101833.22;7286148;19;152628;-50
2021/09/23 07:48:06;;;;;;;;;;;;;;;21.26;76.46;101837.97;7286054;19;153549;-50
2021/09/23 07:50:33;;;;;;;;;;;;;;;21.26;76.17;101837.97;7287079;19;153278;-51
2021/09/23 07:53:00;;;;;;;;;;;;;;;21.26;76.28;101840.78;7289047;19;152611;-51
2021/09/23 07:55:27;;;;;;;;;;;;;;;21.24;75.99;101839.41;7286126;19;152159;-51
2021/09/23 07:57:54;;;;;;;;;;;;;;;21.20;75.95;101843.94;7281457;19;153528;-51
2021/09/23 08:00:21;;;;;;;;;;;;;;;21.13;75.23;101840.59;7284132;19;153971;-51
2021/09/23 08:02:48;;;;;;;;;;;;;;;21.14;75.31;101851.56;7277672;19;151846;-51
2021/09/23 08:05:16;;;;;;;;;;;;;;;21.14;75.19;101848.75;7276624;19;154302;-51
2021/09/23 08:07:45;;;;;;;;;;;;;;;21.14;75.40;101854.38;7275130;19;153135;-51
2021/09/23 08:10:12;;;;;;;;;;;;;;;21.12;75.26;101859.41;7279466;19;152110;-51
2021/09/23 08:12:39;;;;;;;;;;;;;;;21.11;75.52;101857.75;7286550;19;153082;-51
2021/09/23 08:15:06;;;;;;;;;;;;;;;21.13;75.17;101854.66;7292285;19;151819;-51
2021/09/23 08:17:33;;;;;;;;;;;;;;;21.14;75.66;101861.97;7283343;19;152714;-51
2021/09/23 08:20:00;;;;;;;;;;;;;;;21.10;75.22;101860.84;7286251;19;155476;-51
2021/09/23 08:22:27;;;;;;;;;;;;;;;21.16;76.27;101868.16;7285466;19;151946;-51
2021/09/23 08:24:54;;;;;;;;;;;;;;;21.18;76.16;101857.44;7286376;19;153145;-51
2021/09/23 08:27:21;;;;;;;;;;;;;;;21.16;75.92;101857.75;7278761;19;154042;-51
2021/09/23 08:29:48;;;;;;;;;;;;;;;21.17;75.84;101847.31;7281985;19;151985;-52
2021/09/23 08:32:19;;;;;;;;;;;;;;;21.16;75.83;101860.56;7284899;19;152842;-51
2021/09/23 08:34:47;;;;;;;;;;;;;;;21.18;75.84;101865.88;7288312;19;153882;-51
2021/09/23 08:37:14;;;;;;;;;;;;;;;21.17;76.23;101861.38;7285236;19;153044;-52
2021/09/23 08:39:45;;;;;;;;;;;;;;;21.17;75.89;101867.00;7283781;19;154196;-51
2021/09/23 08:42:12;;;;;;;;;;;;;;;21.17;76.28;101861.38;7283604;19;151924;-51
2021/09/23 08:44:40;;;;;;;;;;;;;;;21.17;76.32;101861.38;7285810;19;151702;-51
2021/09/23 08:47:07;;;;;;;;;;;;;;;21.20;76.11;101864.47;7282026;19;153546;-51
2021/09/23 08:49:34;;;;;;;;;;;;;;;21.21;76.36;101860.50;7285631;19;151848;-51
2021/09/23 08:52:01;;;;;;;;;;;;;;;21.24;76.44;101857.13;7285887;19;153396;-51
2021/09/23 08:54:28;;;;;;;;;;;;;;;21.30;76.05;101874.81;7283188;19;154008;-51
2021/09/23 08:56:59;;;;;;;;;;;;;;;21.34;76.35;101859.03;7290363;19;152311;-52
2021/09/23 08:59:26;;;;;;;;;;;;;;;21.43;74.93;101864.88;7279977;19;154060;-52
2021/09/23 09:01:59;;;;;;;;;;;;;;;21.40;75.45;101854.19;7279065;19;152088;-50
2021/09/23 09:04:30;;;;;;;;;;;;;;;21.46;75.55;101858.66;7284754;19;152778;-51
2021/09/23 09:06:59;;;;;;;;;;;;;;;21.53;75.16;101847.94;7282801;19;153653;-52
2021/09/23 09:09:26;;;;;;;;;;;;;;;21.59;75.11;101850.38;7285096;19;151856;-53
2021/09/23 09:12:10;;;;;;;;;;;;;;;21.63;75.32;101853.44;7283963;19;153167;-52
2021/09/23 09:14:39;;;;;;;;;;;;;;;21.67;75.43;101848.91;7281735;19;152768;-52
2021/09/23 09:17:07;;;;;;;;;;;;;;;21.71;74.87;101850.84;7282142;19;152064;-51
2021/09/23 09:19:37;;;;;;;;;;;;;;;21.78;75.27;101858.97;7290096;19;153182;-52
2021/09/23 09:22:07;;;;;;;;;;;;;;;21.81;75.34;101855.53;7280647;19;151890;-52
2021/09/23 09:24:36;;;;;;;;;;;;;;;21.85;75.99;101855.81;7282014;19;151992;-53
2021/09/23 09:27:03;;;;;;;;;;;;;;;21.91;75.97;101857.44;7282417;19;153625;-52
2021/09/23 09:29:30;;;;;;;;;;;;;;;21.95;75.45;101858.53;7278200;19;152031;-52
2021/09/23 09:31:57;;;;;;;;;;;;;;;21.99;75.66;101857.66;7284872;19;154064;-52
2021/09/23 09:34:24;;;;;;;;;;;;;;;22.02;75.58;101857.09;7283459;19;153985;-52
2021/09/23 09:36:53;;;;;;;;;;;;;;;22.06;75.86;101852.53;7282467;19;152580;-52
2021/09/23 09:39:24;;;;;;;;;;;;;;;22.10;75.30;101861.22;7281322;19;153349;-51
2021/09/23 09:41:52;;;;;;;;;;;;;;;22.13;75.42;101858.63;7289291;19;153484;-52
2021/09/23 09:44:19;;;;;;;;;;;;;;;22.18;75.00;101863.38;7281572;19;152571;-52
2021/09/23 09:46:53;;;;;;;;;;;;;;;22.20;74.55;101852.69;7286905;19;153409;-52
2021/09/23 09:49:22;;;;;;;;;;;;;;;22.23;74.77;101854.88;7290871;19;151694;-52
2021/09/23 09:51:51;;;;;;;;;;;;;;;22.25;74.44;101852.63;7288247;19;153699;-52
2021/09/23 09:54:18;;;;;;;;;;;;;;;22.27;74.18;101847.50;7288737;19;152624;-52
2021/09/23 09:56:46;;;;;;;;;;;;;;;22.30;73.97;101844.13;7288219;19;151793;-49
2021/09/23 09:59:15;;;;;;;;;;;;;;;22.31;74.44;101842.13;7288668;19;152979;-51
2021/09/23 10:01:44;;;;;;;;;;;;;;;22.32;74.59;101843.81;7287076;19;153274;-51
2021/09/23 10:04:12;;;;;;;;;;;;;;;22.33;74.70;101845.50;7295950;19;151817;-51
2021/09/23 10:06:40;;;;;;;;;;;;;;;22.34;74.43;101836.75;7287544;19;153462;-56
2021/09/23 10:09:08;;;;;;;;;;;;;;;22.38;74.64;101837.00;7288626;19;152044;-51
2021/09/23 10:11:36;;;;;;;;;;;;;;;22.39;74.36;101836.69;7287349;19;152626;-52
2021/09/23 10:14:03;;;;;;;;;;;;;;;22.38;74.06;101837.00;7285938;19;152268;-50
2021/09/23 10:16:32;;;;;;;;;;;;;;;22.42;74.22;101832.44;7286633;19;152180;-52
2021/09/23 10:18:59;;;;;;;;;;;;;;;22.43;74.41;101823.69;7285675;19;152003;-50
2021/09/23 10:21:26;;;;;;;;;;;;;;;22.45;74.73;101831.81;7287596;19;153681;-52
2021/09/23 10:23:54;;;;;;;;;;;;;;;22.45;74.22;101829.84;7295325;19;152214;-51
2021/09/23 10:26:24;;;;;;;;;;;;;;;22.47;74.10;101838.84;7286790;19;153355;-50
2021/09/23 10:28:52;;;;;;;;;;;;;;;22.45;74.36;101820.56;7285306;19;151926;-51
2021/09/23 10:31:21;;;;;;;;;;;;;;;22.48;74.45;101819.97;7283341;19;152677;-51
2021/09/23 10:33:49;;;;;;;;;;;;;;;22.48;74.41;101815.19;7286732;19;152841;-51
2021/09/23 10:36:16;;;;;;;;;;;;;;;22.49;74.49;101816.84;7285660;19;152254;-50
2021/09/23 10:38:45;;;;;;;;;;;;;;;22.49;74.02;101805.56;7285746;19;152328;-51
2021/09/23 10:41:12;;;;;;;;;;;;;;;22.49;74.68;101802.75;7285628;19;152158;-51
2021/09/23 10:43:40;;;;;;;;;;;;;;;22.49;74.28;101802.75;7287578;19;152142;-51
2021/09/23 10:46:07;;;;;;;;;;;;;;;22.48;74.23;101820.81;7295074;19;153472;-51
2021/09/23 10:48:34;;;;;;;;;;;;;;;22.51;74.25;101794.00;7288682;19;151969;-50
2021/09/23 10:51:03;;;;;;;;;;;;;;;22.51;74.65;101803.31;7285827;19;153673;-51
2021/09/23 10:53:30;;;;;;;;;;;;;;;22.52;74.39;101790.06;7285380;19;153007;-51
2021/09/23 10:56:01;;;;;;;;;;;;;;;22.56;74.52;101794.78;7287453;19;151878;-51
2021/09/23 10:58:28;;;;;;;;;;;;;;;22.56;74.38;101782.69;7283753;19;152712;-51
2021/09/23 11:00:56;;;;;;;;;;;;;;;22.56;74.13;101800.44;7284809;19;153568;-52
2021/09/23 11:03:29;;;;;;;;;;;;;;;22.54;74.67;101785.78;7286982;19;152011;-51
2021/09/23 11:05:57;;;;;;;;;;;;;;;22.54;74.27;101773.69;7287128;19;153001;-51
2021/09/23 11:08:26;;;;;;;;;;;;;;;22.54;74.23;101774.53;7292466;19;152896;-51
2021/09/23 11:10:53;;;;;;;;;;;;;;;22.60;74.35;101766.84;7287949;19;152315;-50
2021/09/23 11:13:20;;;;;;;;;;;;;;;22.61;74.23;101762.91;7286378;19;153864;-51
2021/09/23 11:15:47;;;;;;;;;;;;;;;22.60;73.88;101761.22;7287107;19;151685;-50
2021/09/23 11:18:17;;;;;;;;;;;;;;;22.57;74.77;101756.19;7285591;19;153783;-51
2021/09/23 11:20:46;;;;;;;;;;;;;;;22.61;74.71;101757.28;7284841;19;152729;-51
2021/09/23 11:23:13;;;;;;;;;;;;;;;22.57;75.45;101751.41;7286208;19;152131;-52
2021/09/23 11:25:46;;;;;;;;;;;;;;;22.68;75.83;101746.44;7284006;19;152612;-51
2021/09/23 11:28:13;;;;;;;;;;;;;;;22.72;75.71;101741.91;7283812;19;153891;-51
2021/09/23 11:30:40;;;;;;;;;;;;;;;22.76;76.36;101745.78;7290280;19;151888;-50
2021/09/23 11:33:09;;;;;;;;;;;;;;;22.76;76.56;101744.97;7283142;19;154417;-51
2021/09/23 11:35:37;;;;;;;;;;;;;;;22.67;76.39;101752.41;7285274;19;152110;-50
2021/09/23 11:38:05;;;;;;;;;;;;;;;22.56;76.26;101741.28;7287033;19;153016;-51
2021/09/23 11:40:33;;;;;;;;;;;;;;;22.63;76.51;101736.09;7286681;19;152026;-51
2021/09/23 11:43:00;;;;;;;;;;;;;;;22.59;77.05;101743.47;7286617;19;151716;-50
2021/09/23 11:45:31;;;;;;;;;;;;;;;22.59;77.23;101740.66;7284517;19;151893;-50
2021/09/23 11:48:01;;;;;;;;;;;;;;;22.63;77.54;101744.53;7284117;19;153670;-51
2021/09/23 11:50:29;;;;;;;;;;;;;;;22.61;77.99;101738.41;7284630;19;151713;-51
2021/09/23 11:53:01;;;;;;;;;;;;;;;22.62;77.93;101730.78;7290692;19;153307;-51
2021/09/23 11:55:28;;;;;;;;;;;;;;;22.60;77.52;101739.53;7283317;19;151997;-51
2021/09/23 11:57:58;;;;;;;;;;;;;;;22.62;78.23;101737.22;7283179;19;152898;-51
2021/09/23 12:00:30;;;;;;;;;;;;;;;22.62;78.62;101731.59;7283080;19;152479;-51
2021/09/23 12:02:57;;;;;;;;;;;;;;;22.66;79.94;101726.22;7284686;19;151637;-51
2021/09/23 12:05:25;;;;;;;;;;;;;;;22.62;80.29;101744.88;7284405;19;152038;-52
2021/09/23 12:07:52;;;;;;;;;;;;;;;22.63;79.52;101738.91;7285798;19;153348;-51
2021/09/23 12:10:21;;;;;;;;;;;;;;;22.62;81.42;101725.16;7285608;19;151569;-51
2021/09/23 12:12:55;;;;;;;;;;;;;;;22.63;82.18;101726.78;7287148;19;153327;-51
2021/09/23 12:15:23;;;;;;;;;;;;;;;22.62;81.03;101734.41;7292362;19;152606;-51
2021/09/23 12:17:53;;;;;;;;;;;;;;;22.62;80.96;101725.97;7287208;19;152821;-50
2021/09/23 12:20:35;;;;;;;;;;;;;;;22.58;79.09;101724.06;7280301;19;153780;-52
2021/09/23 12:23:17;;;;;;;;;;;;;;;22.63;79.54;101713.56;7283923;19;151762;-51
2021/09/23 12:25:59;;;;;;;;;;;;;;;22.65;79.25;101715.25;7283493;19;151752;-51
2021/09/23 12:28:26;;;;;;;;;;;;;;;22.77;79.61;101710.00;7283300;19;154178;-57
2021/09/23 12:30:56;;;;;;;;;;;;;;;22.81;79.74;101720.34;7281993;19;151831;-52